createdAt,value
2022-10-31T00:01:51.432Z,30.93
2022-10-31T00:05:23.365Z,35.70
2022-10-31T00:08:57.383Z,34.55
2022-10-31T00:12:29.372Z,34.03
2022-10-31T00:16:01.445Z,34.90
2022-10-31T00:19:33.285Z,34.87
2022-10-31T00:23:06.315Z,31.40
2022-10-31T00:26:38.180Z,44.22
2022-10-31T00:30:10.359Z,139.27
2022-10-31T00:33:42.708Z,151.87
2022-10-31T00:37:14.372Z,54.90
2022-10-31T00:40:48.719Z,27.17
2022-10-31T00:44:20.473Z,23.23
2022-10-31T00:47:52.454Z,39.35
2022-10-31T00:51:24.157Z,71.43
2022-10-31T00:54:56.082Z,48.92
2022-10-31T00:58:27.967Z,73.37
2022-10-31T01:01:59.917Z,41.65
2022-10-31T01:05:31.729Z,23.73
2022-10-31T01:09:03.701Z,53.43
2022-10-31T01:12:43.929Z,81.47
2022-10-31T01:16:18.555Z,119.72
2022-10-31T01:19:50.826Z,45.10
2022-10-31T01:23:22.788Z,46.43
2022-10-31T01:26:54.458Z,67.10
2022-10-31T01:30:26.272Z,118.75
2022-10-31T01:33:58.250Z,133.27
2022-10-31T01:37:31.572Z,34.17
2022-10-31T01:41:03.311Z,61.17
2022-10-31T01:44:35.121Z,63.38
2022-10-31T01:48:14.913Z,47.95
2022-10-31T01:51:52.718Z,31.50
2022-10-31T01:55:45.038Z,39.17
2022-10-31T01:59:20.581Z,58.80
2022-10-31T02:02:52.828Z,45.03
2022-10-31T02:06:38.492Z,45.03
2022-10-31T02:10:10.558Z,34.00
2022-10-31T02:13:42.587Z,39.00
2022-10-31T02:17:14.859Z,29.73
2022-10-31T02:21:01.261Z,32.10
2022-10-31T02:24:45.254Z,33.65
2022-10-31T02:28:20.149Z,35.20
2022-10-31T02:32:01.556Z,28.57
2022-10-31T02:35:46.401Z,32.27
2022-10-31T02:39:27.039Z,34.17
2022-10-31T02:43:17.212Z,36.55
2022-10-31T02:47:02.625Z,41.87
2022-10-31T02:50:38.681Z,31.15
2022-10-31T02:54:22.210Z,25.55
2022-10-31T02:58:02.077Z,31.80
2022-10-31T03:02:06.645Z,32.67
2022-10-31T03:05:52.320Z,27.42
2022-10-31T03:09:45.106Z,23.33
2022-10-31T03:13:28.027Z,32.63
2022-10-31T03:17:05.547Z,28.33
2022-10-31T03:20:48.864Z,35.65
2022-10-31T03:24:23.502Z,65.32
2022-10-31T03:27:57.086Z,33.17
2022-10-31T03:31:36.244Z,38.75
2022-10-31T03:35:10.871Z,34.33
2022-10-31T03:38:44.147Z,39.70
2022-10-31T03:42:21.591Z,40.97
2022-10-31T03:45:53.654Z,55.67
2022-10-31T03:49:26.129Z,65.45
2022-10-31T03:53:26.261Z,72.80
2022-10-31T03:57:04.576Z,71.97
2022-10-31T04:00:41.996Z,75.95
2022-10-31T04:04:15.290Z,48.08
2022-10-31T04:07:50.254Z,45.00
2022-10-31T04:11:25.793Z,55.10
2022-10-31T04:14:59.113Z,71.03
2022-10-31T04:18:31.181Z,52.83
2022-10-31T04:22:03.464Z,28.10
2022-10-31T04:25:35.370Z,41.22
2022-10-31T04:29:07.037Z,39.17
2022-10-31T04:32:38.898Z,37.93
2022-10-31T04:36:10.930Z,42.38
2022-10-31T04:39:42.801Z,36.28
2022-10-31T04:43:14.515Z,51.33
2022-10-31T04:46:46.493Z,37.23
2022-10-31T04:50:18.444Z,48.88
2022-10-31T04:53:50.334Z,41.83
2022-10-31T04:57:22.174Z,38.77
2022-10-31T05:00:55.244Z,33.90
2022-10-31T05:04:26.961Z,38.38
2022-10-31T05:07:58.907Z,38.13
2022-10-31T05:11:30.609Z,41.83
2022-10-31T05:15:02.715Z,38.00
2022-10-31T05:18:34.398Z,35.72
2022-10-31T05:22:06.228Z,54.00
2022-10-31T05:25:37.928Z,35.93
2022-10-31T05:29:09.756Z,32.53
2022-10-31T05:32:44.294Z,36.10
2022-10-31T05:36:16.119Z,33.80
2022-10-31T05:39:48.018Z,36.30
2022-10-31T05:43:19.977Z,37.83
2022-10-31T05:46:51.677Z,54.90
2022-10-31T05:50:24.123Z,41.25
2022-10-31T05:53:55.765Z,43.27
2022-10-31T05:57:27.653Z,40.73
2022-10-31T06:00:59.376Z,44.20
2022-10-31T06:04:31.213Z,46.38
2022-10-31T06:08:03.442Z,39.50
2022-10-31T06:11:35.742Z,46.70
2022-10-31T06:15:09.315Z,37.25
2022-10-31T06:18:41.160Z,40.40
2022-10-31T06:22:13.418Z,43.03
2022-10-31T06:25:51.014Z,41.05
2022-10-31T06:29:22.764Z,31.33
2022-10-31T06:32:54.689Z,32.70
2022-10-31T06:39:58.206Z,25.40
2022-10-31T06:43:30.375Z,29.83
2022-10-31T06:47:02.300Z,29.30
2022-10-31T06:50:34.016Z,32.07
2022-10-31T06:54:05.968Z,32.45
2022-10-31T06:57:37.657Z,31.10
2022-10-31T07:01:09.698Z,26.83
2022-10-31T07:04:41.497Z,23.47
2022-10-31T07:08:14.843Z,26.38
2022-10-31T07:11:46.606Z,24.00
2022-10-31T07:15:18.430Z,34.40
2022-10-31T07:18:51.118Z,42.23
2022-10-31T07:22:22.956Z,30.35
2022-10-31T07:25:58.728Z,33.83
2022-10-31T07:29:30.556Z,28.73
2022-10-31T07:33:02.420Z,38.73
2022-10-31T07:36:34.252Z,34.13
2022-10-31T07:40:07.689Z,43.45
2022-10-31T07:43:39.589Z,39.23
2022-10-31T07:47:11.711Z,33.87
2022-10-31T07:50:43.646Z,32.08
2022-10-31T07:54:15.375Z,45.88
2022-10-31T07:57:47.216Z,39.20
2022-10-31T08:01:18.924Z,35.23
2022-10-31T08:04:50.822Z,45.15
2022-10-31T08:08:22.592Z,34.65
2022-10-31T08:11:54.737Z,35.30
2022-10-31T08:15:27.243Z,48.13
2022-10-31T08:18:59.260Z,30.33
2022-10-31T08:22:30.986Z,35.75
2022-10-31T08:26:03.080Z,31.00
2022-10-31T08:29:35.017Z,27.67
2022-10-31T08:33:11.404Z,27.13
2022-10-31T08:36:45.895Z,28.88
2022-10-31T08:40:17.762Z,25.63
2022-10-31T08:43:49.427Z,25.77
2022-10-31T08:47:23.171Z,24.90
2022-10-31T08:50:58.860Z,32.72
2022-10-31T08:54:30.816Z,31.20
2022-10-31T08:58:04.301Z,30.35
2022-10-31T09:01:36.507Z,35.78
2022-10-31T09:05:08.766Z,27.75
2022-10-31T09:08:40.644Z,30.17
2022-10-31T09:12:12.331Z,34.20
2022-10-31T09:15:49.171Z,35.47
2022-10-31T09:19:21.466Z,41.40
2022-10-31T09:22:58.157Z,47.73
2022-10-31T09:26:29.882Z,52.42
2022-10-31T09:30:02.133Z,52.10
2022-10-31T09:33:33.823Z,49.15
2022-10-31T09:37:05.708Z,48.03
2022-10-31T09:40:42.384Z,36.00
2022-10-31T09:44:26.239Z,36.55
2022-10-31T09:48:10.653Z,28.47
2022-10-31T09:51:50.473Z,25.13
2022-10-31T09:55:36.405Z,23.17
2022-10-31T09:59:17.245Z,25.52
2022-10-31T10:03:16.219Z,27.30
2022-10-31T10:06:52.274Z,29.87
2022-10-31T10:10:53.015Z,28.27
2022-10-31T10:14:37.856Z,26.15
2022-10-31T10:18:34.265Z,26.30
2022-10-31T10:22:13.889Z,28.63
2022-10-31T10:25:51.015Z,22.85
2022-10-31T10:29:41.986Z,26.15
2022-10-31T10:33:45.932Z,22.50
2022-10-31T10:37:20.717Z,21.60
2022-10-31T10:40:54.998Z,22.20
2022-10-31T10:44:45.228Z,20.88
2022-10-31T10:48:28.237Z,19.85
2022-10-31T10:56:18.156Z,21.48
2022-10-31T10:59:50.298Z,20.63
2022-10-31T11:03:22.119Z,27.83
2022-10-31T11:07:11.409Z,22.73
2022-10-31T11:10:43.079Z,28.20
2022-10-31T11:14:16.794Z,24.77
2022-10-31T11:17:52.257Z,20.58
2022-10-31T11:21:30.949Z,23.37
2022-10-31T11:25:22.821Z,28.97
2022-10-31T11:28:59.601Z,24.23
2022-10-31T11:32:31.310Z,20.00
2022-10-31T11:36:25.556Z,25.05
2022-10-31T11:40:00.591Z,23.90
2022-10-31T11:43:32.502Z,24.00
2022-10-31T11:47:06.481Z,22.42
2022-10-31T11:50:41.897Z,22.80
2022-10-31T11:54:22.031Z,22.97
2022-10-31T11:57:55.621Z,25.13
2022-10-31T12:01:30.817Z,25.25
2022-10-31T12:05:21.233Z,22.58
2022-10-31T12:08:53.982Z,23.08
2022-10-31T12:12:47.610Z,21.93
2022-10-31T12:16:35.259Z,23.88
2022-10-31T12:20:13.163Z,21.48
2022-10-31T12:23:56.789Z,26.77
2022-10-31T12:27:48.858Z,27.40
2022-10-31T12:31:32.719Z,26.15
2022-10-31T12:35:43.444Z,27.67
2022-10-31T12:39:24.750Z,26.83
2022-10-31T12:43:05.620Z,24.37
2022-10-31T12:47:03.226Z,23.45
2022-10-31T12:51:09.038Z,23.88
2022-10-31T12:54:50.512Z,22.45
2022-10-31T12:58:34.535Z,25.00
2022-10-31T13:02:14.716Z,25.55
2022-10-31T13:05:52.885Z,23.20
2022-10-31T13:09:57.786Z,23.13
2022-10-31T13:13:41.400Z,21.27
2022-10-31T13:17:33.830Z,24.10
2022-10-31T13:21:12.727Z,21.48
2022-10-31T13:25:02.929Z,17.35
2022-10-31T13:28:46.631Z,27.58
2022-10-31T13:32:18.431Z,20.17
2022-10-31T13:36:07.367Z,23.05
2022-10-31T13:39:41.909Z,22.30
2022-10-31T13:43:46.134Z,31.65
2022-10-31T13:47:35.960Z,31.83
2022-10-31T13:51:10.925Z,29.52
2022-10-31T13:54:48.253Z,28.70
2022-10-31T13:58:31.455Z,31.02
2022-10-31T14:02:16.524Z,32.77
2022-10-31T14:05:54.502Z,29.67
2022-10-31T14:09:30.580Z,29.98
2022-10-31T14:13:06.772Z,33.00
2022-10-31T14:16:41.421Z,33.83
2022-10-31T14:20:13.242Z,33.43
2022-10-31T14:23:47.510Z,37.15
2022-10-31T14:27:22.242Z,35.55
2022-10-31T14:30:58.771Z,35.63
2022-10-31T14:34:35.890Z,33.07
2022-10-31T14:38:20.310Z,33.33
2022-10-31T14:41:59.707Z,43.75
2022-10-31T14:46:04.486Z,44.85
2022-10-31T14:49:59.220Z,39.83
2022-10-31T14:53:37.055Z,39.30
2022-10-31T14:57:24.036Z,44.45
2022-10-31T15:00:57.990Z,44.05
2022-10-31T15:04:33.549Z,48.47
2022-10-31T15:08:06.596Z,38.90
2022-10-31T15:11:39.243Z,40.88
2022-10-31T15:15:25.754Z,41.10
2022-10-31T15:19:11.088Z,45.28
2022-10-31T15:22:42.841Z,44.60
2022-10-31T15:26:21.863Z,42.45
2022-10-31T15:29:55.753Z,33.78
2022-10-31T15:33:38.254Z,33.20
2022-10-31T15:37:16.930Z,29.67
2022-10-31T15:41:02.749Z,36.83
2022-10-31T15:44:38.176Z,34.28
2022-10-31T15:48:25.952Z,38.72
2022-10-31T15:52:00.835Z,36.57
2022-10-31T15:55:39.418Z,40.90
2022-10-31T15:59:23.033Z,45.05
2022-10-31T16:03:09.137Z,46.07
2022-10-31T16:06:40.879Z,42.97
2022-10-31T16:10:26.649Z,44.78
2022-10-31T16:14:08.630Z,54.05
2022-10-31T16:17:43.935Z,56.37
2022-10-31T16:21:16.170Z,71.17
2022-10-31T16:24:53.198Z,68.47
2022-10-31T16:28:31.033Z,81.50
2022-10-31T16:32:05.357Z,74.80
2022-10-31T16:35:39.304Z,90.70
2022-10-31T16:39:11.208Z,77.40
2022-10-31T16:42:44.760Z,84.85
2022-10-31T16:46:22.784Z,93.27
2022-10-31T16:49:54.432Z,83.97
2022-10-31T16:53:26.285Z,85.22
2022-10-31T16:57:00.289Z,81.90
2022-10-31T17:00:32.143Z,74.53
2022-10-31T17:04:03.895Z,68.60
2022-10-31T17:07:35.692Z,79.60
2022-10-31T17:11:14.653Z,77.00
2022-10-31T17:14:50.793Z,79.13
2022-10-31T17:18:27.402Z,83.13
2022-10-31T17:21:59.787Z,69.82
2022-10-31T17:25:32.183Z,69.13
2022-10-31T17:29:04.035Z,63.07
2022-10-31T17:32:35.817Z,60.40
2022-10-31T17:36:07.907Z,55.28
2022-10-31T17:39:39.558Z,50.55
2022-10-31T17:43:12.233Z,60.87
2022-10-31T17:46:44.148Z,49.10
2022-10-31T17:50:18.100Z,48.28
2022-10-31T17:53:49.862Z,63.83
2022-10-31T17:57:21.854Z,47.20
2022-10-31T18:00:53.675Z,48.03
2022-10-31T18:04:26.169Z,49.70
2022-10-31T18:08:02.494Z,65.68
2022-10-31T18:11:35.828Z,47.07
2022-10-31T18:15:07.841Z,57.80
2022-10-31T18:18:40.307Z,46.65
2022-10-31T18:22:13.286Z,42.85
2022-10-31T18:25:45.168Z,39.37
2022-10-31T18:29:16.932Z,42.25
2022-10-31T18:32:52.584Z,39.58
2022-10-31T18:36:25.393Z,50.30
2022-10-31T18:39:57.260Z,46.13
2022-10-31T18:43:29.040Z,40.35
2022-10-31T18:47:01.135Z,41.72
2022-10-31T18:50:32.882Z,41.70
2022-10-31T18:54:04.852Z,55.90
2022-10-31T18:57:36.692Z,55.60
2022-10-31T19:01:10.336Z,57.83
2022-10-31T19:04:42.190Z,57.67
2022-10-31T19:08:14.122Z,48.33
2022-10-31T19:11:45.887Z,46.40
2022-10-31T19:15:17.720Z,47.38
2022-10-31T19:18:49.521Z,50.87
2022-10-31T19:22:21.449Z,42.72
2022-10-31T19:25:53.696Z,40.97
2022-10-31T19:29:25.539Z,45.35
2022-10-31T19:32:57.245Z,56.33
2022-10-31T19:36:29.649Z,49.85
2022-10-31T19:40:01.322Z,38.47
2022-10-31T19:43:33.506Z,41.53
2022-10-31T19:47:05.545Z,37.67
2022-10-31T19:50:37.428Z,46.75
2022-10-31T19:54:09.165Z,41.35
2022-10-31T19:58:00.935Z,55.40
2022-10-31T20:01:32.828Z,43.13
2022-10-31T20:05:05.085Z,68.97
2022-10-31T20:08:39.569Z,47.55
2022-10-31T20:12:11.835Z,36.20
2022-10-31T20:15:43.496Z,33.42
2022-10-31T20:19:15.412Z,33.20
2022-10-31T20:22:49.810Z,59.63
2022-10-31T20:26:24.099Z,36.87
2022-10-31T20:29:56.065Z,40.00
2022-10-31T20:33:27.946Z,38.65
2022-10-31T20:36:59.724Z,36.57
2022-10-31T20:40:32.387Z,40.15
2022-10-31T20:44:04.222Z,42.88
2022-10-31T20:47:36.117Z,27.88
2022-10-31T20:51:12.523Z,31.33
2022-10-31T20:54:44.376Z,30.75
2022-10-31T20:58:16.076Z,26.42
2022-10-31T21:01:47.996Z,33.47
2022-10-31T21:05:19.778Z,25.02
2022-10-31T21:08:52.484Z,27.92
2022-10-31T21:12:24.227Z,29.08
2022-10-31T21:16:01.031Z,27.43
2022-10-31T21:19:33.550Z,24.02
2022-10-31T21:23:05.405Z,28.50
2022-10-31T21:26:39.975Z,39.13
2022-10-31T21:30:11.933Z,29.33
2022-10-31T21:33:45.155Z,31.65
2022-10-31T21:37:17.051Z,27.05
2022-10-31T21:40:48.740Z,27.90
2022-10-31T21:44:20.838Z,26.27
2022-10-31T21:47:52.558Z,33.75
2022-10-31T21:51:27.102Z,34.33
2022-10-31T21:54:58.765Z,32.67
2022-10-31T21:58:34.689Z,25.00
2022-10-31T22:02:09.538Z,30.00
2022-10-31T22:05:41.417Z,30.50
2022-10-31T22:09:14.648Z,24.93
2022-10-31T22:12:46.491Z,40.65
2022-10-31T22:16:20.812Z,29.40
2022-10-31T22:19:54.378Z,36.35
2022-10-31T22:23:26.027Z,27.43
2022-10-31T22:26:57.860Z,33.45
2022-10-31T22:30:29.524Z,28.92
2022-10-31T22:34:01.593Z,29.40
2022-10-31T22:37:33.727Z,31.13
2022-10-31T22:41:10.891Z,35.70
2022-10-31T22:44:42.625Z,30.95
2022-10-31T22:48:14.682Z,32.60
2022-10-31T22:51:46.412Z,40.87
2022-10-31T22:55:18.640Z,43.80
2022-10-31T22:58:51.021Z,43.28
2022-10-31T23:02:23.021Z,31.40
2022-10-31T23:05:56.759Z,31.83
2022-10-31T23:09:28.687Z,41.60
2022-10-31T23:13:19.349Z,33.50
2022-10-31T23:16:53.845Z,35.37
2022-10-31T23:20:25.581Z,38.03
2022-10-31T23:23:57.915Z,44.38
2022-10-31T23:27:29.617Z,47.05
2022-10-31T23:31:01.503Z,37.00
2022-10-31T23:34:33.325Z,43.73
2022-10-31T23:38:05.145Z,33.97
2022-10-31T23:41:37.169Z,37.30
2022-10-31T23:45:09.305Z,41.80
2022-10-31T23:48:41.286Z,40.17
2022-10-31T23:52:14.566Z,36.88
2022-10-31T23:55:46.270Z,35.22
2022-10-31T23:59:18.166Z,49.20
